Terminal Aerodrome Forecast
Issued by NWS Cleveland, OH

Home | Current Version | Previous Version | Text Only | Print | Product List | Glossary Off
Versions: 1 2 3 4 5 6 7 8 9 10 11 12 13 14 15

957
FTUS41 KCLE 280539
TAFTOL
TAF
KTOL 280539Z 2806/2906 07012KT P6SM BKN100
     FM280800 07010KT P6SM -SHRA BKN035
     FM281000 07010G18KT 5SM -SHRA BKN024
     FM281500 06012G20KT P6SM VCSH OVC014
     FM290100 05010KT 6SM BR VCSH OVC012=

USA.gov is the U.S. government's official web portal to all federal, state and local government web resources and services.